sensor_id;sensor_type;location;lat;lon;timestamp;P1;durP1;ratioP1;P2;durP2;ratioP2
8159;SDS011;27404;52.398;9.646;2023-01-29T00:01:07;24.13;;;10.60;;
8159;SDS011;27404;52.398;9.646;2023-01-29T00:03:33;20.17;;;11.33;;
8159;SDS011;27404;52.398;9.646;2023-01-29T00:05:59;19.80;;;10.60;;
8159;SDS011;27404;52.398;9.646;2023-01-29T00:08:25;18.60;;;10.70;;
8159;SDS011;27404;52.398;9.646;2023-01-29T00:10:51;18.70;;;10.70;;
8159;SDS011;27404;52.398;9.646;2023-01-29T00:13:17;20.43;;;10.83;;
8159;SDS011;27404;52.398;9.646;2023-01-29T00:15:43;17.97;;;10.17;;
8159;SDS011;27404;52.398;9.646;2023-01-29T00:18:17;18.70;;;10.27;;
8159;SDS011;27404;52.398;9.646;2023-01-29T00:20:43;20.63;;;10.90;;
8159;SDS011;27404;52.398;9.646;2023-01-29T00:23:08;19.83;;;10.00;;
8159;SDS011;27404;52.398;9.646;2023-01-29T00:25:34;18.03;;;10.00;;
8159;SDS011;27404;52.398;9.646;2023-01-29T00:27:59;19.37;;;10.53;;
8159;SDS011;27404;52.398;9.646;2023-01-29T00:30:24;20.83;;;10.83;;
8159;SDS011;27404;52.398;9.646;2023-01-29T00:32:50;18.57;;;10.47;;
8159;SDS011;27404;52.398;9.646;2023-01-29T00:35:15;21.00;;;10.13;;
8159;SDS011;27404;52.398;9.646;2023-01-29T00:37:41;19.20;;;10.67;;
8159;SDS011;27404;52.398;9.646;2023-01-29T00:40:06;19.90;;;10.23;;
8159;SDS011;27404;52.398;9.646;2023-01-29T00:42:34;20.13;;;11.03;;
8159;SDS011;27404;52.398;9.646;2023-01-29T00:45:18;19.17;;;10.90;;
8159;SDS011;27404;52.398;9.646;2023-01-29T00:47:43;17.83;;;10.37;;
8159;SDS011;27404;52.398;9.646;2023-01-29T00:50:09;16.27;;;9.70;;
8159;SDS011;27404;52.398;9.646;2023-01-29T00:52:36;20.73;;;10.63;;
8159;SDS011;27404;52.398;9.646;2023-01-29T00:55:02;20.53;;;10.30;;
8159;SDS011;27404;52.398;9.646;2023-01-29T00:57:30;20.73;;;10.50;;
8159;SDS011;27404;52.398;9.646;2023-01-29T00:59:57;20.60;;;11.03;;
8159;SDS011;27404;52.398;9.646;2023-01-29T01:02:23;16.67;;;9.90;;
8159;SDS011;27404;52.398;9.646;2023-01-29T01:05:08;17.63;;;10.50;;
8159;SDS011;27404;52.398;9.646;2023-01-29T01:07:38;20.03;;;9.87;;
8159;SDS011;27404;52.398;9.646;2023-01-29T01:10:05;17.63;;;10.47;;
8159;SDS011;27404;52.398;9.646;2023-01-29T01:15:17;17.63;;;10.63;;
8159;SDS011;27404;52.398;9.646;2023-01-29T01:17:43;18.17;;;10.80;;
8159;SDS011;27404;52.398;9.646;2023-01-29T01:20:09;18.03;;;9.07;;
8159;SDS011;27404;52.398;9.646;2023-01-29T01:22:37;21.23;;;10.37;;
8159;SDS011;27404;52.398;9.646;2023-01-29T01:25:03;20.43;;;10.73;;
8159;SDS011;27404;52.398;9.646;2023-01-29T01:27:28;20.27;;;10.10;;
8159;SDS011;27404;52.398;9.646;2023-01-29T01:29:54;19.87;;;10.50;;
8159;SDS011;27404;52.398;9.646;2023-01-29T01:32:19;18.40;;;11.03;;
8159;SDS011;27404;52.398;9.646;2023-01-29T01:34:45;24.20;;;10.90;;
8159;SDS011;27404;52.398;9.646;2023-01-29T01:37:10;22.80;;;10.43;;
8159;SDS011;27404;52.398;9.646;2023-01-29T01:39:36;19.73;;;10.97;;
8159;SDS011;27404;52.398;9.646;2023-01-29T01:42:01;20.23;;;10.80;;
8159;SDS011;27404;52.398;9.646;2023-01-29T01:47:15;21.37;;;11.07;;
8159;SDS011;27404;52.398;9.646;2023-01-29T01:49:44;20.27;;;10.97;;
8159;SDS011;27404;52.398;9.646;2023-01-29T01:52:11;23.47;;;11.83;;
8159;SDS011;27404;52.398;9.646;2023-01-29T01:54:40;17.70;;;9.97;;
8159;SDS011;27404;52.398;9.646;2023-01-29T01:57:08;22.13;;;10.63;;
8159;SDS011;27404;52.398;9.646;2023-01-29T01:59:41;19.13;;;10.77;;
8159;SDS011;27404;52.398;9.646;2023-01-29T02:02:11;19.97;;;10.90;;
8159;SDS011;27404;52.398;9.646;2023-01-29T02:04:56;19.57;;;10.83;;
8159;SDS011;27404;52.398;9.646;2023-01-29T02:07:41;17.60;;;10.73;;
8159;SDS011;27404;52.398;9.646;2023-01-29T02:10:27;19.83;;;10.43;;
8159;SDS011;27404;52.398;9.646;2023-01-29T02:13:01;20.47;;;11.40;;
8159;SDS011;27404;52.398;9.646;2023-01-29T02:15:31;21.37;;;11.47;;
8159;SDS011;27404;52.398;9.646;2023-01-29T02:17:56;19.93;;;11.43;;
8159;SDS011;27404;52.398;9.646;2023-01-29T02:25:22;23.00;;;12.00;;
8159;SDS011;27404;52.398;9.646;2023-01-29T02:36:31;21.27;;;11.00;;
8159;SDS011;27404;52.398;9.646;2023-01-29T02:39:14;22.90;;;11.20;;
8159;SDS011;27404;52.398;9.646;2023-01-29T02:41:55;22.23;;;11.33;;
8159;SDS011;27404;52.398;9.646;2023-01-29T02:44:54;21.07;;;11.93;;
8159;SDS011;27404;52.398;9.646;2023-01-29T02:47:21;18.47;;;11.07;;
8159;SDS011;27404;52.398;9.646;2023-01-29T02:49:50;23.40;;;11.63;;
8159;SDS011;27404;52.398;9.646;2023-01-29T02:52:21;26.57;;;11.93;;
8159;SDS011;27404;52.398;9.646;2023-01-29T02:55:05;20.70;;;11.77;;
8159;SDS011;27404;52.398;9.646;2023-01-29T02:57:41;23.17;;;11.90;;
8159;SDS011;27404;52.398;9.646;2023-01-29T03:05:26;23.93;;;11.83;;
8159;SDS011;27404;52.398;9.646;2023-01-29T03:08:03;21.90;;;12.17;;
8159;SDS011;27404;52.398;9.646;2023-01-29T03:13:40;22.50;;;12.47;;
8159;SDS011;27404;52.398;9.646;2023-01-29T03:16:13;22.60;;;12.60;;
8159;SDS011;27404;52.398;9.646;2023-01-29T03:18:56;22.60;;;12.60;;
8159;SDS011;27404;52.398;9.646;2023-01-29T03:21:31;23.57;;;12.50;;
8159;SDS011;27404;52.398;9.646;2023-01-29T03:24:41;21.00;;;11.90;;
8159;SDS011;27404;52.398;9.646;2023-01-29T03:27:32;25.77;;;12.67;;
8159;SDS011;27404;52.398;9.646;2023-01-29T03:30:20;26.07;;;14.20;;
8159;SDS011;27404;52.398;9.646;2023-01-29T03:33:09;24.73;;;13.00;;
8159;SDS011;27404;52.398;9.646;2023-01-29T03:35:57;28.40;;;13.97;;
8159;SDS011;27404;52.398;9.646;2023-01-29T03:38:26;23.60;;;12.63;;
8159;SDS011;27404;52.398;9.646;2023-01-29T03:40:57;24.17;;;13.10;;
8159;SDS011;27404;52.398;9.646;2023-01-29T03:43:32;22.47;;;12.33;;
8159;SDS011;27404;52.398;9.646;2023-01-29T03:57:35;25.60;;;12.73;;
8159;SDS011;27404;52.398;9.646;2023-01-29T04:02:48;23.63;;;12.23;;
8159;SDS011;27404;52.398;9.646;2023-01-29T04:05:27;24.53;;;13.00;;
8159;SDS011;27404;52.398;9.646;2023-01-29T04:08:02;24.30;;;13.03;;
8159;SDS011;27404;52.398;9.646;2023-01-29T04:10:30;21.00;;;12.40;;
8159;SDS011;27404;52.398;9.646;2023-01-29T04:13:04;24.80;;;13.10;;
8159;SDS011;27404;52.398;9.646;2023-01-29T04:15:33;22.83;;;12.40;;
8159;SDS011;27404;52.398;9.646;2023-01-29T04:18:04;26.53;;;13.07;;
8159;SDS011;27404;52.398;9.646;2023-01-29T04:20:29;25.20;;;12.10;;
8159;SDS011;27404;52.398;9.646;2023-01-29T04:22:55;23.90;;;13.00;;
8159;SDS011;27404;52.398;9.646;2023-01-29T04:25:25;25.53;;;13.17;;
8159;SDS011;27404;52.398;9.646;2023-01-29T04:31:05;21.47;;;11.73;;
8159;SDS011;27404;52.398;9.646;2023-01-29T04:33:31;22.87;;;11.73;;
8159;SDS011;27404;52.398;9.646;2023-01-29T04:46:26;25.07;;;11.60;;
8159;SDS011;27404;52.398;9.646;2023-01-29T04:51:50;21.20;;;11.53;;
8159;SDS011;27404;52.398;9.646;2023-01-29T05:02:37;22.00;;;11.70;;
8159;SDS011;27404;52.398;9.646;2023-01-29T05:05:04;22.27;;;11.73;;
8159;SDS011;27404;52.398;9.646;2023-01-29T05:07:32;24.33;;;12.03;;
8159;SDS011;27404;52.398;9.646;2023-01-29T05:10:01;22.87;;;11.80;;
8159;SDS011;27404;52.398;9.646;2023-01-29T05:12:29;22.10;;;11.93;;
8159;SDS011;27404;52.398;9.646;2023-01-29T05:14:55;24.27;;;12.13;;
8159;SDS011;27404;52.398;9.646;2023-01-29T05:17:24;22.47;;;12.33;;
8159;SDS011;27404;52.398;9.646;2023-01-29T05:19:50;23.60;;;11.63;;
8159;SDS011;27404;52.398;9.646;2023-01-29T05:22:16;22.30;;;12.10;;
8159;SDS011;27404;52.398;9.646;2023-01-29T05:24:46;21.73;;;11.40;;
8159;SDS011;27404;52.398;9.646;2023-01-29T05:27:19;22.80;;;11.83;;
8159;SDS011;27404;52.398;9.646;2023-01-29T05:30:07;22.13;;;11.30;;
8159;SDS011;27404;52.398;9.646;2023-01-29T05:32:34;23.73;;;11.50;;
8159;SDS011;27404;52.398;9.646;2023-01-29T05:35:00;23.47;;;12.60;;
8159;SDS011;27404;52.398;9.646;2023-01-29T05:37:25;22.07;;;12.13;;
8159;SDS011;27404;52.398;9.646;2023-01-29T05:39:50;23.27;;;12.03;;
8159;SDS011;27404;52.398;9.646;2023-01-29T05:42:16;21.67;;;11.83;;
8159;SDS011;27404;52.398;9.646;2023-01-29T05:44:41;25.47;;;13.20;;
8159;SDS011;27404;52.398;9.646;2023-01-29T05:47:07;24.70;;;12.30;;
8159;SDS011;27404;52.398;9.646;2023-01-29T05:49:32;22.60;;;12.03;;
8159;SDS011;27404;52.398;9.646;2023-01-29T05:51:58;22.30;;;12.20;;
8159;SDS011;27404;52.398;9.646;2023-01-29T05:54:23;23.97;;;11.40;;
8159;SDS011;27404;52.398;9.646;2023-01-29T05:56:49;24.17;;;12.73;;
8159;SDS011;27404;52.398;9.646;2023-01-29T05:59:14;25.90;;;13.20;;
8159;SDS011;27404;52.398;9.646;2023-01-29T06:01:40;24.80;;;12.67;;
8159;SDS011;27404;52.398;9.646;2023-01-29T06:04:05;28.10;;;13.67;;
8159;SDS011;27404;52.398;9.646;2023-01-29T06:06:31;26.07;;;13.20;;
8159;SDS011;27404;52.398;9.646;2023-01-29T06:08:57;23.23;;;12.40;;
8159;SDS011;27404;52.398;9.646;2023-01-29T06:11:23;26.90;;;14.03;;
8159;SDS011;27404;52.398;9.646;2023-01-29T06:13:48;28.53;;;14.33;;
8159;SDS011;27404;52.398;9.646;2023-01-29T06:16:14;24.97;;;13.60;;
8159;SDS011;27404;52.398;9.646;2023-01-29T06:18:40;30.40;;;15.40;;
8159;SDS011;27404;52.398;9.646;2023-01-29T06:21:06;26.67;;;13.33;;
8159;SDS011;27404;52.398;9.646;2023-01-29T06:23:33;27.60;;;14.50;;
8159;SDS011;27404;52.398;9.646;2023-01-29T06:26:00;29.03;;;14.10;;
8159;SDS011;27404;52.398;9.646;2023-01-29T06:28:30;27.53;;;13.87;;
8159;SDS011;27404;52.398;9.646;2023-01-29T06:31:00;30.03;;;15.03;;
8159;SDS011;27404;52.398;9.646;2023-01-29T06:33:27;27.27;;;14.27;;
8159;SDS011;27404;52.398;9.646;2023-01-29T06:35:59;28.73;;;14.23;;
8159;SDS011;27404;52.398;9.646;2023-01-29T06:38:25;25.67;;;13.97;;
8159;SDS011;27404;52.398;9.646;2023-01-29T06:40:52;28.43;;;13.67;;
8159;SDS011;27404;52.398;9.646;2023-01-29T06:43:18;27.60;;;14.90;;
8159;SDS011;27404;52.398;9.646;2023-01-29T06:45:54;26.70;;;13.07;;
8159;SDS011;27404;52.398;9.646;2023-01-29T06:48:21;27.67;;;14.30;;
8159;SDS011;27404;52.398;9.646;2023-01-29T06:50:47;29.27;;;15.53;;
8159;SDS011;27404;52.398;9.646;2023-01-29T06:53:13;27.17;;;13.80;;
8159;SDS011;27404;52.398;9.646;2023-01-29T06:55:40;28.93;;;14.30;;
8159;SDS011;27404;52.398;9.646;2023-01-29T06:58:07;28.53;;;14.83;;
8159;SDS011;27404;52.398;9.646;2023-01-29T07:00:33;29.90;;;14.70;;
8159;SDS011;27404;52.398;9.646;2023-01-29T07:02:59;30.97;;;14.23;;
8159;SDS011;27404;52.398;9.646;2023-01-29T07:05:25;30.80;;;15.53;;
8159;SDS011;27404;52.398;9.646;2023-01-29T07:07:50;29.70;;;14.00;;
8159;SDS011;27404;52.398;9.646;2023-01-29T07:10:16;30.27;;;15.63;;
8159;SDS011;27404;52.398;9.646;2023-01-29T07:12:41;35.80;;;16.50;;
8159;SDS011;27404;52.398;9.646;2023-01-29T07:15:07;33.80;;;16.47;;
8159;SDS011;27404;52.398;9.646;2023-01-29T07:17:33;31.40;;;15.70;;
8159;SDS011;27404;52.398;9.646;2023-01-29T07:19:58;32.67;;;16.27;;
8159;SDS011;27404;52.398;9.646;2023-01-29T07:22:24;30.80;;;15.17;;
8159;SDS011;27404;52.398;9.646;2023-01-29T07:24:49;36.93;;;16.93;;
8159;SDS011;27404;52.398;9.646;2023-01-29T07:27:14;33.43;;;16.60;;
8159;SDS011;27404;52.398;9.646;2023-01-29T07:29:40;36.73;;;17.07;;
8159;SDS011;27404;52.398;9.646;2023-01-29T07:32:05;35.20;;;16.97;;
8159;SDS011;27404;52.398;9.646;2023-01-29T07:34:31;36.33;;;17.47;;
8159;SDS011;27404;52.398;9.646;2023-01-29T07:36:57;35.33;;;17.30;;
8159;SDS011;27404;52.398;9.646;2023-01-29T07:39:23;35.90;;;18.20;;
8159;SDS011;27404;52.398;9.646;2023-01-29T07:41:48;38.33;;;18.30;;
8159;SDS011;27404;52.398;9.646;2023-01-29T07:44:14;36.00;;;17.83;;
8159;SDS011;27404;52.398;9.646;2023-01-29T07:46:39;40.23;;;20.57;;
8159;SDS011;27404;52.398;9.646;2023-01-29T07:49:05;39.37;;;18.03;;
8159;SDS011;27404;52.398;9.646;2023-01-29T07:51:30;41.77;;;18.93;;
8159;SDS011;27404;52.398;9.646;2023-01-29T07:53:56;38.50;;;18.70;;
8159;SDS011;27404;52.398;9.646;2023-01-29T07:56:21;39.27;;;18.23;;
8159;SDS011;27404;52.398;9.646;2023-01-29T07:58:47;36.20;;;18.87;;
8159;SDS011;27404;52.398;9.646;2023-01-29T08:01:12;41.17;;;19.43;;
8159;SDS011;27404;52.398;9.646;2023-01-29T08:03:38;40.43;;;19.37;;
8159;SDS011;27404;52.398;9.646;2023-01-29T08:06:03;37.03;;;18.47;;
8159;SDS011;27404;52.398;9.646;2023-01-29T08:08:29;42.00;;;20.40;;
8159;SDS011;27404;52.398;9.646;2023-01-29T08:10:55;40.00;;;20.77;;
8159;SDS011;27404;52.398;9.646;2023-01-29T08:13:20;40.67;;;19.87;;
8159;SDS011;27404;52.398;9.646;2023-01-29T08:15:46;40.60;;;20.00;;
8159;SDS011;27404;52.398;9.646;2023-01-29T08:18:12;39.77;;;20.03;;
8159;SDS011;27404;52.398;9.646;2023-01-29T08:20:38;42.37;;;20.80;;
8159;SDS011;27404;52.398;9.646;2023-01-29T08:23:05;41.40;;;20.73;;
8159;SDS011;27404;52.398;9.646;2023-01-29T08:25:32;44.23;;;19.53;;
8159;SDS011;27404;52.398;9.646;2023-01-29T08:27:59;37.83;;;19.17;;
8159;SDS011;27404;52.398;9.646;2023-01-29T08:30:26;41.83;;;20.03;;
8159;SDS011;27404;52.398;9.646;2023-01-29T08:32:56;37.40;;;19.37;;
8159;SDS011;27404;52.398;9.646;2023-01-29T08:35:21;41.70;;;19.70;;
8159;SDS011;27404;52.398;9.646;2023-01-29T08:37:54;41.80;;;20.27;;
8159;SDS011;27404;52.398;9.646;2023-01-29T08:40:23;37.87;;;18.73;;
8159;SDS011;27404;52.398;9.646;2023-01-29T08:42:49;43.07;;;19.53;;
8159;SDS011;27404;52.398;9.646;2023-01-29T08:45:15;41.17;;;19.83;;
8159;SDS011;27404;52.398;9.646;2023-01-29T08:47:47;43.20;;;19.03;;
8159;SDS011;27404;52.398;9.646;2023-01-29T08:50:14;42.13;;;19.03;;
8159;SDS011;27404;52.398;9.646;2023-01-29T08:52:41;35.03;;;17.80;;
8159;SDS011;27404;52.398;9.646;2023-01-29T08:55:07;37.60;;;18.53;;
8159;SDS011;27404;52.398;9.646;2023-01-29T08:57:33;36.43;;;18.73;;
8159;SDS011;27404;52.398;9.646;2023-01-29T08:59:58;38.40;;;18.20;;
8159;SDS011;27404;52.398;9.646;2023-01-29T09:02:24;35.40;;;18.97;;
8159;SDS011;27404;52.398;9.646;2023-01-29T09:04:49;40.50;;;19.83;;
8159;SDS011;27404;52.398;9.646;2023-01-29T09:07:15;37.17;;;19.10;;
8159;SDS011;27404;52.398;9.646;2023-01-29T09:09:40;37.47;;;18.67;;
8159;SDS011;27404;52.398;9.646;2023-01-29T09:12:05;32.77;;;16.77;;
8159;SDS011;27404;52.398;9.646;2023-01-29T09:14:31;32.87;;;16.23;;
8159;SDS011;27404;52.398;9.646;2023-01-29T09:16:56;30.53;;;16.10;;
8159;SDS011;27404;52.398;9.646;2023-01-29T09:19:22;31.67;;;16.57;;
8159;SDS011;27404;52.398;9.646;2023-01-29T09:21:47;33.40;;;16.63;;
8159;SDS011;27404;52.398;9.646;2023-01-29T09:24:13;28.00;;;15.83;;
8159;SDS011;27404;52.398;9.646;2023-01-29T09:26:39;33.73;;;16.77;;
8159;SDS011;27404;52.398;9.646;2023-01-29T09:29:05;30.53;;;15.83;;
8159;SDS011;27404;52.398;9.646;2023-01-29T09:31:30;33.70;;;16.60;;
8159;SDS011;27404;52.398;9.646;2023-01-29T09:33:56;30.13;;;15.97;;
8159;SDS011;27404;52.398;9.646;2023-01-29T09:36:22;34.90;;;16.07;;
8159;SDS011;27404;52.398;9.646;2023-01-29T09:38:47;32.70;;;16.17;;
8159;SDS011;27404;52.398;9.646;2023-01-29T09:41:20;31.10;;;16.67;;
8159;SDS011;27404;52.398;9.646;2023-01-29T09:43:52;34.03;;;15.97;;
8159;SDS011;27404;52.398;9.646;2023-01-29T09:46:23;29.57;;;15.23;;
8159;SDS011;27404;52.398;9.646;2023-01-29T09:48:59;34.20;;;16.70;;
8159;SDS011;27404;52.398;9.646;2023-01-29T09:51:29;27.97;;;15.13;;
8159;SDS011;27404;52.398;9.646;2023-01-29T09:54:23;32.00;;;15.67;;
8159;SDS011;27404;52.398;9.646;2023-01-29T09:56:54;27.47;;;14.60;;
8159;SDS011;27404;52.398;9.646;2023-01-29T09:59:21;35.27;;;15.37;;
8159;SDS011;27404;52.398;9.646;2023-01-29T10:10:02;32.63;;;16.43;;
8159;SDS011;27404;52.398;9.646;2023-01-29T10:26:42;29.83;;;14.87;;
8159;SDS011;27404;52.398;9.646;2023-01-29T10:29:09;31.20;;;15.47;;
8159;SDS011;27404;52.398;9.646;2023-01-29T10:31:42;32.40;;;16.50;;
8159;SDS011;27404;52.398;9.646;2023-01-29T10:36:47;36.13;;;15.53;;
8159;SDS011;27404;52.398;9.646;2023-01-29T10:39:14;30.47;;;15.00;;
8159;SDS011;27404;52.398;9.646;2023-01-29T10:49:28;32.47;;;16.00;;
8159;SDS011;27404;52.398;9.646;2023-01-29T11:02:48;38.63;;;15.80;;
8159;SDS011;27404;52.398;9.646;2023-01-29T11:05:39;31.90;;;15.90;;
8159;SDS011;27404;52.398;9.646;2023-01-29T11:08:12;33.90;;;16.90;;
8159;SDS011;27404;52.398;9.646;2023-01-29T11:10:44;32.70;;;15.67;;
8159;SDS011;27404;52.398;9.646;2023-01-29T11:13:15;34.30;;;15.73;;
8159;SDS011;27404;52.398;9.646;2023-01-29T11:15:42;35.13;;;15.63;;
8159;SDS011;27404;52.398;9.646;2023-01-29T11:18:08;29.63;;;15.60;;
8159;SDS011;27404;52.398;9.646;2023-01-29T11:20:38;29.97;;;15.50;;
8159;SDS011;27404;52.398;9.646;2023-01-29T11:23:05;29.30;;;14.93;;
8159;SDS011;27404;52.398;9.646;2023-01-29T11:25:50;32.53;;;16.50;;
8159;SDS011;27404;52.398;9.646;2023-01-29T11:28:17;31.77;;;15.73;;
8159;SDS011;27404;52.398;9.646;2023-01-29T11:31:13;29.17;;;15.33;;
8159;SDS011;27404;52.398;9.646;2023-01-29T11:33:47;32.83;;;15.93;;
8159;SDS011;27404;52.398;9.646;2023-01-29T11:36:27;31.60;;;14.87;;
8159;SDS011;27404;52.398;9.646;2023-01-29T11:39:21;29.87;;;15.10;;
8159;SDS011;27404;52.398;9.646;2023-01-29T11:41:57;31.93;;;14.83;;
8159;SDS011;27404;52.398;9.646;2023-01-29T11:49:48;28.07;;;14.67;;
8159;SDS011;27404;52.398;9.646;2023-01-29T11:52:21;34.10;;;15.00;;
8159;SDS011;27404;52.398;9.646;2023-01-29T11:57:21;28.97;;;15.40;;
8159;SDS011;27404;52.398;9.646;2023-01-29T11:59:52;32.07;;;16.03;;
8159;SDS011;27404;52.398;9.646;2023-01-29T12:02:21;31.57;;;16.17;;
8159;SDS011;27404;52.398;9.646;2023-01-29T12:05:26;30.70;;;16.90;;
8159;SDS011;27404;52.398;9.646;2023-01-29T12:07:53;34.53;;;17.23;;
8159;SDS011;27404;52.398;9.646;2023-01-29T12:10:34;33.33;;;16.30;;
8159;SDS011;27404;52.398;9.646;2023-01-29T12:15:33;32.73;;;17.10;;
8159;SDS011;27404;52.398;9.646;2023-01-29T12:18:43;31.83;;;16.20;;
8159;SDS011;27404;52.398;9.646;2023-01-29T12:21:01;29.83;;;16.10;;
8159;SDS011;27404;52.398;9.646;2023-01-29T12:26:17;35.50;;;17.33;;
8159;SDS011;27404;52.398;9.646;2023-01-29T12:34:29;34.87;;;17.40;;
8159;SDS011;27404;52.398;9.646;2023-01-29T12:39:28;33.87;;;17.70;;
8159;SDS011;27404;52.398;9.646;2023-01-29T12:44:33;33.23;;;16.80;;
8159;SDS011;27404;52.398;9.646;2023-01-29T12:47:01;36.97;;;18.53;;
8159;SDS011;27404;52.398;9.646;2023-01-29T12:49:34;34.30;;;17.80;;
8159;SDS011;27404;52.398;9.646;2023-01-29T12:52:06;33.77;;;16.90;;
8159;SDS011;27404;52.398;9.646;2023-01-29T12:54:40;36.13;;;17.33;;
8159;SDS011;27404;52.398;9.646;2023-01-29T13:00:12;35.13;;;18.50;;
8159;SDS011;27404;52.398;9.646;2023-01-29T13:03:25;39.87;;;18.37;;
8159;SDS011;27404;52.398;9.646;2023-01-29T13:05:44;34.97;;;16.47;;
8159;SDS011;27404;52.398;9.646;2023-01-29T13:08:24;34.30;;;17.07;;
8159;SDS011;27404;52.398;9.646;2023-01-29T13:10:54;33.70;;;17.03;;
8159;SDS011;27404;52.398;9.646;2023-01-29T13:16:00;34.70;;;17.20;;
8159;SDS011;27404;52.398;9.646;2023-01-29T13:21:18;32.33;;;16.63;;
8159;SDS011;27404;52.398;9.646;2023-01-29T13:23:51;33.20;;;17.10;;
8159;SDS011;27404;52.398;9.646;2023-01-29T13:26:20;32.53;;;16.37;;
8159;SDS011;27404;52.398;9.646;2023-01-29T13:28:47;35.83;;;17.53;;
8159;SDS011;27404;52.398;9.646;2023-01-29T13:36:50;32.53;;;16.60;;
8159;SDS011;27404;52.398;9.646;2023-01-29T13:39:32;34.97;;;16.43;;
8159;SDS011;27404;52.398;9.646;2023-01-29T13:42:02;29.53;;;14.83;;
8159;SDS011;27404;52.398;9.646;2023-01-29T13:44:40;29.67;;;16.17;;
8159;SDS011;27404;52.398;9.646;2023-01-29T13:47:19;30.60;;;15.50;;
8159;SDS011;27404;52.398;9.646;2023-01-29T13:52:37;31.63;;;15.07;;
8159;SDS011;27404;52.398;9.646;2023-01-29T14:07:55;29.07;;;15.33;;
8159;SDS011;27404;52.398;9.646;2023-01-29T14:10:28;32.77;;;15.03;;
8159;SDS011;27404;52.398;9.646;2023-01-29T14:15:42;29.27;;;15.30;;
8159;SDS011;27404;52.398;9.646;2023-01-29T14:18:30;29.00;;;15.13;;
8159;SDS011;27404;52.398;9.646;2023-01-29T14:21:00;32.37;;;15.33;;
8159;SDS011;27404;52.398;9.646;2023-01-29T14:26:41;29.13;;;15.03;;
8159;SDS011;27404;52.398;9.646;2023-01-29T14:31:45;31.43;;;15.20;;
8159;SDS011;27404;52.398;9.646;2023-01-29T14:34:27;35.03;;;17.13;;
8159;SDS011;27404;52.398;9.646;2023-01-29T14:36:59;37.83;;;17.23;;
8159;SDS011;27404;52.398;9.646;2023-01-29T14:39:39;32.27;;;16.63;;
8159;SDS011;27404;52.398;9.646;2023-01-29T14:42:24;35.60;;;17.40;;
8159;SDS011;27404;52.398;9.646;2023-01-29T14:45:08;35.50;;;17.57;;
8159;SDS011;27404;52.398;9.646;2023-01-29T14:55:36;33.90;;;16.40;;
8159;SDS011;27404;52.398;9.646;2023-01-29T14:58:04;37.20;;;18.37;;
8159;SDS011;27404;52.398;9.646;2023-01-29T15:00:36;42.17;;;19.70;;
8159;SDS011;27404;52.398;9.646;2023-01-29T15:03:04;38.13;;;18.77;;
8159;SDS011;27404;52.398;9.646;2023-01-29T15:05:38;38.53;;;18.73;;
8159;SDS011;27404;52.398;9.646;2023-01-29T15:08:18;36.00;;;17.90;;
8159;SDS011;27404;52.398;9.646;2023-01-29T15:10:54;42.33;;;18.80;;
8159;SDS011;27404;52.398;9.646;2023-01-29T15:13:51;40.67;;;18.70;;
8159;SDS011;27404;52.398;9.646;2023-01-29T15:16:31;35.33;;;18.77;;
8159;SDS011;27404;52.398;9.646;2023-01-29T15:19:17;42.50;;;18.23;;
8159;SDS011;27404;52.398;9.646;2023-01-29T15:24:39;39.73;;;18.57;;
8159;SDS011;27404;52.398;9.646;2023-01-29T15:27:06;35.43;;;18.40;;
8159;SDS011;27404;52.398;9.646;2023-01-29T15:29:36;40.90;;;19.90;;
8159;SDS011;27404;52.398;9.646;2023-01-29T15:32:02;34.67;;;17.90;;
8159;SDS011;27404;52.398;9.646;2023-01-29T15:34:28;38.60;;;18.80;;
8159;SDS011;27404;52.398;9.646;2023-01-29T15:36:53;35.00;;;17.80;;
8159;SDS011;27404;52.398;9.646;2023-01-29T15:39:20;39.33;;;18.83;;
8159;SDS011;27404;52.398;9.646;2023-01-29T15:41:48;33.43;;;17.53;;
8159;SDS011;27404;52.398;9.646;2023-01-29T15:44:22;35.67;;;17.73;;
8159;SDS011;27404;52.398;9.646;2023-01-29T15:46:54;38.20;;;18.87;;
8159;SDS011;27404;52.398;9.646;2023-01-29T15:49:32;39.33;;;18.87;;
8159;SDS011;27404;52.398;9.646;2023-01-29T15:52:02;37.27;;;17.97;;
8159;SDS011;27404;52.398;9.646;2023-01-29T15:54:31;39.80;;;18.33;;
8159;SDS011;27404;52.398;9.646;2023-01-29T15:56:59;34.87;;;17.83;;
8159;SDS011;27404;52.398;9.646;2023-01-29T15:59:37;38.33;;;17.83;;
8159;SDS011;27404;52.398;9.646;2023-01-29T16:02:25;37.60;;;17.47;;
8159;SDS011;27404;52.398;9.646;2023-01-29T16:05:03;35.17;;;16.83;;
8159;SDS011;27404;52.398;9.646;2023-01-29T16:07:31;36.50;;;18.17;;
8159;SDS011;27404;52.398;9.646;2023-01-29T16:09:56;36.83;;;18.57;;
8159;SDS011;27404;52.398;9.646;2023-01-29T16:12:23;35.60;;;18.43;;
8159;SDS011;27404;52.398;9.646;2023-01-29T16:14:48;38.47;;;18.90;;
8159;SDS011;27404;52.398;9.646;2023-01-29T16:17:25;35.80;;;17.63;;
8159;SDS011;27404;52.398;9.646;2023-01-29T16:20:00;36.60;;;18.37;;
8159;SDS011;27404;52.398;9.646;2023-01-29T16:22:31;36.20;;;17.77;;
8159;SDS011;27404;52.398;9.646;2023-01-29T16:25:06;36.93;;;18.67;;
8159;SDS011;27404;52.398;9.646;2023-01-29T16:27:38;33.77;;;17.23;;
8159;SDS011;27404;52.398;9.646;2023-01-29T16:30:07;31.43;;;16.37;;
8159;SDS011;27404;52.398;9.646;2023-01-29T16:32:34;39.20;;;17.97;;
8159;SDS011;27404;52.398;9.646;2023-01-29T16:35:00;34.33;;;17.90;;
8159;SDS011;27404;52.398;9.646;2023-01-29T16:37:29;35.37;;;18.13;;
8159;SDS011;27404;52.398;9.646;2023-01-29T16:39:57;39.63;;;18.43;;
8159;SDS011;27404;52.398;9.646;2023-01-29T16:42:24;37.73;;;18.63;;
8159;SDS011;27404;52.398;9.646;2023-01-29T16:44:55;37.10;;;17.93;;
8159;SDS011;27404;52.398;9.646;2023-01-29T16:47:29;37.70;;;18.30;;
8159;SDS011;27404;52.398;9.646;2023-01-29T16:52:55;37.30;;;18.60;;
8159;SDS011;27404;52.398;9.646;2023-01-29T16:55:22;39.83;;;19.27;;
8159;SDS011;27404;52.398;9.646;2023-01-29T16:57:53;36.17;;;17.33;;
8159;SDS011;27404;52.398;9.646;2023-01-29T17:02:58;36.80;;;17.90;;
8159;SDS011;27404;52.398;9.646;2023-01-29T17:05:28;34.90;;;18.30;;
8159;SDS011;27404;52.398;9.646;2023-01-29T17:07:56;37.17;;;18.10;;
8159;SDS011;27404;52.398;9.646;2023-01-29T17:10:23;35.93;;;18.30;;
8159;SDS011;27404;52.398;9.646;2023-01-29T17:13:01;34.67;;;17.77;;
8159;SDS011;27404;52.398;9.646;2023-01-29T17:15:32;34.53;;;17.40;;
8159;SDS011;27404;52.398;9.646;2023-01-29T17:18:10;40.27;;;17.93;;
8159;SDS011;27404;52.398;9.646;2023-01-29T17:20:42;37.13;;;16.97;;
8159;SDS011;27404;52.398;9.646;2023-01-29T17:23:07;33.63;;;17.33;;
8159;SDS011;27404;52.398;9.646;2023-01-29T17:25:33;36.33;;;18.93;;
8159;SDS011;27404;52.398;9.646;2023-01-29T17:27:59;34.33;;;16.90;;
8159;SDS011;27404;52.398;9.646;2023-01-29T17:30:25;33.97;;;17.57;;
8159;SDS011;27404;52.398;9.646;2023-01-29T17:32:55;37.20;;;18.60;;
8159;SDS011;27404;52.398;9.646;2023-01-29T17:35:20;34.57;;;17.80;;
8159;SDS011;27404;52.398;9.646;2023-01-29T17:37:46;30.37;;;16.87;;
8159;SDS011;27404;52.398;9.646;2023-01-29T17:40:17;32.87;;;18.57;;
8159;SDS011;27404;52.398;9.646;2023-01-29T17:42:52;35.93;;;18.23;;
8159;SDS011;27404;52.398;9.646;2023-01-29T17:45:17;32.53;;;17.00;;
8159;SDS011;27404;52.398;9.646;2023-01-29T17:47:43;34.10;;;16.33;;
8159;SDS011;27404;52.398;9.646;2023-01-29T17:50:29;34.40;;;17.83;;
8159;SDS011;27404;52.398;9.646;2023-01-29T17:52:55;33.43;;;17.40;;
8159;SDS011;27404;52.398;9.646;2023-01-29T17:55:21;30.33;;;15.80;;
8159;SDS011;27404;52.398;9.646;2023-01-29T17:57:46;32.07;;;16.27;;
8159;SDS011;27404;52.398;9.646;2023-01-29T18:00:19;32.13;;;17.27;;
8159;SDS011;27404;52.398;9.646;2023-01-29T18:02:46;30.73;;;16.10;;